Cebu City, Philippines
Current Conditions -  °F | °C
As of 4:00 PM on Thursday 27 Nov 2014 (Local Time) from RPVM Reporting Station
Overcast Overcast  
Wind Chill: 82°   Ceiling: 10000
Heat Index: 92°   Visibility: 6mi
Dew Point: 79°   Wind: 12mph
Humidity: 89%   Direction: 30°NNE
Pressure: 29.77"   Gusts: NA
Location:  10.3°N, 123.9°E
Report Text: RPVM 270800Z 03010KT 9999 SCT020 OVC100 28/26 Q1008 RMK A2977
Loading
Personal Weather Stations






























Interactive Weather Map New forecast layout! Learn more

10-Day Weather Forecast

Advertisements
Track Severe Weather on mobile